Time;durP1;ratioP1;P1;durP2;ratioP2;P2;SDS_P1;SDS_P2;PMS_P1;PMS_P2;Temp;Humidity;BMP_temperature;BMP_pressure;BME280_temperature;BME280_humidity;BME280_pressure;Samples;Min_cycle;Max_cycle;Signal;HPM_P1;HPM_P2
2021/09/21 00:01:24;;;;;;;7.47;3.65;;;8.70;99.90;;;;;;5007766;28;20034;-83
2021/09/21 00:03:49;;;;;;;5.93;3.78;;;8.70;99.90;;;;;;5003197;28;20088;-84
2021/09/21 00:06:15;;;;;;;8.65;3.75;;;8.60;99.90;;;;;;5009978;28;20393;-83
2021/09/21 00:08:40;;;;;;;6.75;4.15;;;8.60;99.90;;;;;;5008882;28;20018;-83
2021/09/21 00:11:06;;;;;;;7.63;3.90;;;8.60;99.90;;;;;;5009366;28;20044;-83
2021/09/21 00:13:32;;;;;;;6.10;4.05;;;8.60;99.90;;;;;;5009969;28;20029;-83
2021/09/21 00:15:58;;;;;;;8.25;4.30;;;8.60;99.90;;;;;;5011151;28;20038;-83
2021/09/21 00:18:24;;;;;;;6.07;3.67;;;8.60;99.90;;;;;;5009413;28;20149;-83
2021/09/21 00:20:50;;;;;;;6.30;3.90;;;8.60;99.90;;;;;;5005571;28;20137;-83
2021/09/21 00:23:15;;;;;;;8.82;4.15;;;8.60;99.90;;;;;;5009514;28;20022;-83
2021/09/21 00:25:41;;;;;;;6.82;3.53;;;8.60;99.90;;;;;;5006206;28;20030;-83
2021/09/21 00:28:07;;;;;;;5.18;3.83;;;8.60;99.90;;;;;;5025477;28;20022;-84
2021/09/21 00:30:33;;;;;;;7.80;4.57;;;8.60;99.90;;;;;;5008418;28;20033;-84
2021/09/21 00:33:06;;;;;;;8.18;4.50;;;8.50;99.90;;;;;;5009523;28;20027;-84
2021/09/21 00:35:34;;;;;;;7.70;4.05;;;8.50;99.90;;;;;;5010142;28;20021;-83
2021/09/21 00:38:02;;;;;;;8.75;4.38;;;8.50;99.90;;;;;;5008649;28;20029;-84
2021/09/21 00:40:29;;;;;;;6.32;4.43;;;8.40;99.90;;;;;;5007088;28;20511;-84
2021/09/21 00:42:59;;;;;;;7.05;4.05;;;8.40;99.90;;;;;;5010990;28;20026;-83
2021/09/21 00:45:24;;;;;;;8.57;4.28;;;8.30;99.90;;;;;;5008450;28;20030;-83
2021/09/21 00:47:54;;;;;;;8.70;4.50;;;8.30;99.90;;;;;;5009291;28;20445;-83
2021/09/21 00:50:21;;;;;;;7.57;4.57;;;8.30;99.90;;;;;;5005233;28;20117;-83
2021/09/21 00:52:48;;;;;;;7.93;4.15;;;8.20;99.90;;;;;;5005413;28;20446;-83
2021/09/21 00:55:15;;;;;;;7.55;4.50;;;8.20;99.90;;;;;;5010604;28;20108;-84
2021/09/21 00:57:41;;;;;;;8.00;3.67;;;8.20;99.90;;;;;;5010891;28;20021;-84
2021/09/21 01:00:09;;;;;;;6.15;4.20;;;8.30;99.90;;;;;;5009610;28;20042;-83
2021/09/21 01:02:34;;;;;;;5.95;3.83;;;8.20;99.90;;;;;;5003851;28;20030;-83
2021/09/21 01:05:01;;;;;;;8.40;4.35;;;8.20;99.90;;;;;;5010537;28;20034;-83
2021/09/21 01:07:26;;;;;;;7.47;4.00;;;8.10;99.90;;;;;;5006703;28;20398;-83
2021/09/21 01:10:04;;;;;;;7.65;4.50;;;8.10;99.90;;;;;;5001912;28;20081;-83
2021/09/21 01:12:29;;;;;;;8.07;4.32;;;8.10;99.90;;;;;;5009384;28;20069;-83
2021/09/21 01:14:55;;;;;;;8.57;4.13;;;8.10;99.90;;;;;;5013621;28;20478;-84
2021/09/21 01:17:20;;;;;;;8.65;5.07;;;8.10;99.90;;;;;;5013833;28;20072;-83
2021/09/21 01:19:46;;;;;;;9.35;5.07;;;8.10;99.90;;;;;;5012896;28;20033;-83
2021/09/21 01:22:13;;;;;;;6.53;3.88;;;8.10;99.90;;;;;;5012729;28;20071;-83
2021/09/21 01:24:38;;;;;;;6.00;4.47;;;8.00;99.90;;;;;;4997748;28;20366;-83
2021/09/21 01:27:04;;;;;;;6.63;4.43;;;8.00;99.90;;;;;;5007648;28;20208;-84
2021/09/21 01:29:29;;;;;;;9.93;4.97;;;8.00;99.90;;;;;;5011747;28;20034;-83
2021/09/21 01:31:55;;;;;;;8.35;4.45;;;7.90;99.90;;;;;;5012847;28;20104;-84
2021/09/21 01:34:20;;;;;;;7.38;4.85;;;8.00;99.90;;;;;;5014557;28;20026;-83
2021/09/21 01:36:46;;;;;;;8.98;5.00;;;7.90;99.90;;;;;;5011253;28;20030;-83
2021/09/21 01:39:12;;;;;;;9.27;4.95;;;7.90;99.90;;;;;;5024239;28;20031;-83
2021/09/21 01:41:37;;;;;;;7.85;4.88;;;7.90;99.90;;;;;;5011767;28;20532;-83
2021/09/21 01:44:03;;;;;;;6.85;4.80;;;7.90;99.90;;;;;;5013035;28;20026;-83
2021/09/21 01:46:28;;;;;;;9.50;4.68;;;7.90;99.90;;;;;;5012299;28;20117;-83
2021/09/21 01:48:54;;;;;;;6.75;4.82;;;7.80;99.90;;;;;;5024704;28;20023;-83
2021/09/21 01:54:23;;;;;;;12.35;5.25;;;7.80;99.90;;;;;;5000497;28;20044;-83
2021/09/21 01:59:33;;;;;;;8.77;4.82;;;7.70;99.90;;;;;;5013672;28;20045;-84
2021/09/21 02:01:58;;;;;;;9.00;4.72;;;7.60;99.90;;;;;;5011328;28;20026;-83
2021/09/21 02:04:24;;;;;;;10.88;5.45;;;7.50;99.90;;;;;;5012836;28;20596;-83
2021/09/21 02:06:51;;;;;;;9.25;5.05;;;7.50;99.90;;;;;;5011337;28;20040;-83
2021/09/21 02:09:17;;;;;;;9.10;5.13;;;7.40;99.90;;;;;;5009522;28;20026;-83
2021/09/21 02:11:45;;;;;;;8.85;5.22;;;7.30;99.90;;;;;;5007693;28;20072;-83
2021/09/21 02:14:13;;;;;;;7.45;4.53;;;7.30;99.90;;;;;;5027890;28;20061;-83
2021/09/21 02:16:39;;;;;;;8.35;4.45;;;7.20;99.90;;;;;;5012333;28;20026;-83
2021/09/21 02:19:05;;;;;;;9.85;4.93;;;7.20;99.90;;;;;;5010902;28;20084;-83
2021/09/21 02:21:31;;;;;;;6.93;4.57;;;7.10;99.90;;;;;;5010176;28;20533;-83
2021/09/21 02:23:58;;;;;;;8.20;5.03;;;7.10;99.90;;;;;;5012192;28;20022;-83
2021/09/21 02:26:24;;;;;;;11.18;5.35;;;7.00;99.90;;;;;;5012412;28;20025;-83
2021/09/21 02:28:50;;;;;;;11.38;6.03;;;7.00;99.90;;;;;;5010850;28;20034;-83
2021/09/21 02:31:16;;;;;;;8.05;4.65;;;7.00;99.90;;;;;;5012320;28;20460;-83
2021/09/21 02:33:42;;;;;;;8.50;4.53;;;7.00;99.90;;;;;;5011831;28;20030;-83
2021/09/21 02:36:07;;;;;;;8.23;5.65;;;7.00;99.90;;;;;;5012460;28;20029;-83
2021/09/21 02:38:34;;;;;;;9.05;5.85;;;6.90;99.90;;;;;;5010160;28;20402;-82
2021/09/21 02:40:59;;;;;;;9.77;5.97;;;6.90;99.90;;;;;;5009187;28;20121;-83
2021/09/21 02:43:25;;;;;;;9.95;5.88;;;6.90;99.90;;;;;;5010194;28;20129;-83
2021/09/21 02:45:50;;;;;;;8.13;5.05;;;6.90;99.90;;;;;;5011494;28;20457;-83
2021/09/21 02:48:16;;;;;;;9.05;5.57;;;6.90;99.90;;;;;;5011412;28;20033;-82
2021/09/21 02:50:43;;;;;;;10.38;6.03;;;6.90;99.90;;;;;;5009995;28;21247;-83
2021/09/21 02:53:08;;;;;;;9.00;5.72;;;6.90;99.90;;;;;;5005573;28;20509;-83
2021/09/21 02:55:34;;;;;;;9.15;5.93;;;6.90;99.90;;;;;;5012790;28;20025;-83
2021/09/21 02:57:59;;;;;;;9.13;5.40;;;6.80;99.90;;;;;;5011566;28;20021;-83
2021/09/21 03:00:26;;;;;;;9.93;5.75;;;6.80;99.90;;;;;;5010527;28;20088;-83
2021/09/21 03:02:54;;;;;;;11.25;6.40;;;6.80;99.90;;;;;;5011085;28;20014;-82
2021/09/21 03:05:24;;;;;;;8.82;5.85;;;6.80;99.90;;;;;;5011555;28;20140;-84
2021/09/21 03:07:56;;;;;;;10.48;6.43;;;6.80;99.90;;;;;;5009241;28;20033;-83
2021/09/21 03:18:26;;;;;;;12.48;5.75;;;6.70;99.90;;;;;;5006042;28;20103;-83
2021/09/21 03:20:52;;;;;;;8.45;5.80;;;6.70;99.90;;;;;;5010715;28;20068;-83
2021/09/21 03:23:20;;;;;;;9.40;5.55;;;6.70;99.90;;;;;;5011871;28;20046;-83
2021/09/21 03:25:45;;;;;;;11.10;6.60;;;6.70;99.90;;;;;;5009672;28;20025;-83
2021/09/21 03:28:11;;;;;;;7.25;5.07;;;6.70;99.90;;;;;;5009437;28;20029;-83
2021/09/21 03:30:36;;;;;;;12.05;7.13;;;6.70;99.90;;;;;;5023316;28;20037;-83
2021/09/21 03:33:02;;;;;;;11.90;7.05;;;6.80;99.90;;;;;;5007065;28;20040;-83
2021/09/21 03:35:28;;;;;;;11.65;7.90;;;6.90;99.90;;;;;;5011568;28;20076;-82
2021/09/21 03:37:53;;;;;;;12.15;7.40;;;7.00;99.90;;;;;;5009620;28;20032;-83
2021/09/21 03:40:19;;;;;;;14.65;8.15;;;7.10;99.90;;;;;;5007538;28;20076;-82
2021/09/21 03:42:44;;;;;;;13.60;8.80;;;7.20;99.90;;;;;;5011483;28;20440;-82
2021/09/21 03:45:11;;;;;;;10.93;6.93;;;7.20;99.90;;;;;;5010387;28;20445;-83
2021/09/21 03:47:36;;;;;;;12.63;7.50;;;7.20;99.90;;;;;;5008970;28;20029;-83
2021/09/21 03:50:04;;;;;;;10.93;7.70;;;7.20;99.90;;;;;;5009535;28;20390;-83
2021/09/21 03:52:29;;;;;;;13.23;7.35;;;7.30;99.90;;;;;;5003447;28;20026;-83
2021/09/21 03:54:55;;;;;;;12.57;7.47;;;7.30;99.90;;;;;;5011053;28;20033;-83
2021/09/21 03:57:21;;;;;;;9.43;7.13;;;7.30;99.90;;;;;;5008425;28;20029;-83
2021/09/21 03:59:46;;;;;;;9.60;6.63;;;7.30;99.90;;;;;;5008585;28;20030;-83
2021/09/21 04:02:12;;;;;;;12.07;7.95;;;7.30;99.90;;;;;;5010926;28;20474;-83
2021/09/21 04:04:38;;;;;;;12.85;8.02;;;7.30;99.90;;;;;;5010388;28;20065;-83
2021/09/21 04:07:03;;;;;;;14.13;8.07;;;7.30;99.90;;;;;;5011396;28;20030;-83
2021/09/21 04:09:29;;;;;;;11.93;7.53;;;7.30;99.90;;;;;;5008297;28;20040;-83
2021/09/21 04:11:54;;;;;;;15.13;7.78;;;7.30;99.90;;;;;;5009667;28;20405;-83
2021/09/21 04:14:20;;;;;;;13.73;7.38;;;7.30;99.90;;;;;;5010268;28;20137;-83
2021/09/21 04:16:45;;;;;;;10.63;6.93;;;7.20;99.90;;;;;;5009454;28;20072;-83
2021/09/21 04:19:11;;;;;;;10.98;7.13;;;7.10;99.90;;;;;;5008913;28;20540;-83
2021/09/21 04:21:36;;;;;;;12.10;6.93;;;7.10;99.90;;;;;;5008681;28;20065;-82
2021/09/21 04:24:02;;;;;;;10.45;6.75;;;7.00;99.90;;;;;;5003225;28;20036;-83
2021/09/21 04:26:27;;;;;;;13.13;7.07;;;6.90;99.90;;;;;;5008005;28;20064;-83
2021/09/21 04:28:53;;;;;;;12.95;6.60;;;6.90;99.90;;;;;;5004865;28;20076;-83
2021/09/21 04:31:23;;;;;;;10.52;7.07;;;6.80;99.90;;;;;;5010594;28;20073;-83
2021/09/21 04:33:50;;;;;;;14.57;8.55;;;6.70;99.90;;;;;;5010954;28;20561;-83
2021/09/21 04:36:16;;;;;;;11.93;7.60;;;6.70;99.90;;;;;;5007259;28;20351;-82
2021/09/21 04:38:42;;;;;;;13.85;7.95;;;6.60;99.90;;;;;;5010704;28;20026;-83
2021/09/21 04:41:07;;;;;;;13.90;7.82;;;6.60;99.90;;;;;;5011691;28;20067;-83
2021/09/21 04:43:37;;;;;;;15.18;7.88;;;6.50;99.90;;;;;;5009897;28;20508;-83
2021/09/21 04:46:03;;;;;;;12.35;7.35;;;6.50;99.90;;;;;;5010882;28;20092;-83
2021/09/21 04:48:29;;;;;;;11.07;6.80;;;6.50;99.90;;;;;;5013598;28;20026;-83
2021/09/21 04:50:54;;;;;;;11.43;6.93;;;6.50;99.90;;;;;;5029454;28;20017;-83
2021/09/21 04:53:20;;;;;;;14.90;7.00;;;6.50;99.90;;;;;;5015147;28;20030;-84
2021/09/21 04:55:46;;;;;;;17.60;8.05;;;6.50;99.90;;;;;;5014116;28;20058;-84
2021/09/21 04:58:11;;;;;;;14.57;7.95;;;6.60;99.90;;;;;;5014138;28;20026;-84
2021/09/21 05:00:37;;;;;;;15.38;8.43;;;6.60;99.90;;;;;;5011757;28;20041;-84
2021/09/21 05:03:02;;;;;;;13.00;8.52;;;6.70;99.90;;;;;;5011862;28;20071;-84
2021/09/21 05:05:28;;;;;;;17.95;9.40;;;6.80;99.90;;;;;;5003787;28;20033;-83
2021/09/21 05:07:54;;;;;;;16.23;8.63;;;6.90;99.90;;;;;;5010779;28;20105;-83
2021/09/21 05:10:19;;;;;;;18.02;9.00;;;7.00;99.90;;;;;;5014291;28;20173;-82
2021/09/21 05:12:45;;;;;;;13.48;8.80;;;7.10;99.90;;;;;;5012888;28;20026;-83
2021/09/21 05:15:11;;;;;;;14.55;9.02;;;7.20;99.90;;;;;;5013095;28;20037;-82
2021/09/21 05:17:38;;;;;;;15.73;8.98;;;7.30;99.90;;;;;;5008963;28;20026;-83
2021/09/21 05:20:05;;;;;;;16.15;8.82;;;7.40;99.90;;;;;;5007688;28;20493;-81
2021/09/21 05:22:30;;;;;;;16.20;9.15;;;7.40;99.90;;;;;;5013717;28;20120;-82
2021/09/21 05:24:57;;;;;;;16.23;10.30;;;7.50;99.90;;;;;;5012927;28;20026;-82
2021/09/21 05:27:22;;;;;;;11.85;8.52;;;7.50;99.90;;;;;;5012381;28;20095;-83
2021/09/21 05:29:48;;;;;;;13.27;8.52;;;7.60;99.90;;;;;;5011783;28;20501;-83
2021/09/21 05:32:13;;;;;;;12.30;8.50;;;7.70;99.90;;;;;;5013574;28;20045;-83
2021/09/21 05:34:39;;;;;;;13.30;8.25;;;7.80;99.90;;;;;;5014230;28;20022;-83
2021/09/21 05:37:04;;;;;;;15.05;9.02;;;7.80;99.90;;;;;;5012887;28;20022;-83
2021/09/21 05:39:30;;;;;;;13.52;8.70;;;7.80;99.90;;;;;;5012322;28;20061;-83
2021/09/21 05:41:56;;;;;;;17.52;9.00;;;7.90;99.90;;;;;;5028979;28;20033;-84
2021/09/21 05:44:23;;;;;;;14.85;9.43;;;8.00;99.90;;;;;;5011110;28;20025;-84
2021/09/21 05:46:49;;;;;;;17.48;9.40;;;8.00;99.90;;;;;;5013124;28;20029;-83
2021/09/21 05:49:14;;;;;;;12.52;7.97;;;8.10;99.90;;;;;;5013699;28;20045;-83
2021/09/21 05:51:40;;;;;;;12.07;8.05;;;8.20;99.90;;;;;;5013683;28;20026;-83
2021/09/21 05:54:06;;;;;;;11.80;8.02;;;8.20;99.90;;;;;;5012374;28;20157;-84
2021/09/21 05:56:31;;;;;;;14.25;8.93;;;8.30;99.90;;;;;;5012788;28;20033;-83
2021/09/21 05:58:58;;;;;;;12.50;8.60;;;8.40;99.90;;;;;;5011029;28;20021;-84
2021/09/21 06:01:24;;;;;;;17.67;9.15;;;8.40;99.90;;;;;;5008190;28;20040;-83
2021/09/21 06:03:49;;;;;;;16.77;8.88;;;8.50;99.90;;;;;;5008708;28;20406;-82
2021/09/21 06:06:15;;;;;;;12.52;8.18;;;8.60;99.90;;;;;;5010375;28;20027;-82
2021/09/21 06:08:40;;;;;;;12.90;8.80;;;8.60;99.90;;;;;;5010507;28;20064;-84
2021/09/21 06:11:06;;;;;;;13.80;8.25;;;8.70;99.90;;;;;;5014643;28;20034;-83
2021/09/21 06:13:32;;;;;;;12.52;8.27;;;8.70;99.90;;;;;;5013529;28;20477;-84
2021/09/21 06:15:57;;;;;;;11.45;7.72;;;8.80;99.90;;;;;;5013516;28;20485;-83
2021/09/21 06:18:23;;;;;;;15.10;8.73;;;9.00;99.90;;;;;;5013467;28;20029;-84
2021/09/21 06:20:48;;;;;;;14.10;8.23;;;9.00;99.90;;;;;;5012130;28;20045;-83
2021/09/21 06:23:14;;;;;;;13.88;9.00;;;9.10;99.90;;;;;;5012428;28;20113;-83
2021/09/21 06:25:40;;;;;;;14.88;8.07;;;9.10;99.90;;;;;;5013709;28;20053;-83
2021/09/21 06:28:06;;;;;;;13.38;9.13;;;9.30;99.90;;;;;;5011000;28;20056;-82
2021/09/21 06:30:32;;;;;;;12.43;7.78;;;9.30;99.90;;;;;;5002314;28;20038;-83
2021/09/21 06:32:58;;;;;;;16.85;8.23;;;9.40;99.90;;;;;;5011686;28;20081;-84
2021/09/21 06:35:24;;;;;;;12.48;8.10;;;9.50;99.90;;;;;;5012227;28;20037;-84
2021/09/21 06:37:49;;;;;;;11.95;7.47;;;9.60;99.90;;;;;;5012482;28;20508;-83
2021/09/21 06:40:15;;;;;;;15.00;8.18;;;9.70;99.90;;;;;;5013192;28;20048;-83
2021/09/21 06:42:42;;;;;;;12.23;7.90;;;9.80;99.90;;;;;;5031127;28;20065;-83
2021/09/21 06:45:10;;;;;;;16.80;9.10;;;10.00;99.90;;;;;;5013215;28;20029;-83
2021/09/21 06:47:36;;;;;;;12.35;7.85;;;10.10;99.90;;;;;;5012854;28;20033;-84
2021/09/21 06:50:02;;;;;;;10.98;7.80;;;10.20;99.90;;;;;;5019197;28;20412;-83
2021/09/21 06:52:28;;;;;;;13.70;9.00;;;10.30;99.90;;;;;;5012096;28;20022;-83
2021/09/21 06:54:54;;;;;;;14.43;8.00;;;10.40;99.90;;;;;;5010541;28;20033;-82
2021/09/21 06:57:19;;;;;;;10.45;7.30;;;10.50;99.90;;;;;;5013382;28;20024;-83
2021/09/21 06:59:45;;;;;;;13.13;7.72;;;10.60;99.90;;;;;;5010716;28;20104;-83
2021/09/21 07:02:11;;;;;;;12.38;8.15;;;10.70;99.90;;;;;;5010542;28;20140;-83
2021/09/21 07:04:36;;;;;;;14.48;8.40;;;10.80;99.90;;;;;;5022203;28;20103;-83
2021/09/21 07:07:02;;;;;;;13.10;8.27;;;10.90;99.90;;;;;;5012470;28;20034;-82
2021/09/21 07:09:28;;;;;;;12.98;8.88;;;11.00;99.90;;;;;;5011407;28;20030;-82
2021/09/21 07:11:53;;;;;;;12.05;7.80;;;11.10;99.90;;;;;;5010548;28;20046;-83
2021/09/21 07:14:19;;;;;;;14.13;9.48;;;11.20;99.90;;;;;;5010296;28;20030;-82
2021/09/21 07:16:45;;;;;;;11.48;8.20;;;11.30;99.90;;;;;;5013169;28;20034;-83
2021/09/21 07:19:10;;;;;;;11.55;7.45;;;11.40;99.90;;;;;;5012003;28;20080;-83
2021/09/21 07:21:37;;;;;;;13.45;7.85;;;11.50;99.90;;;;;;5009819;28;20038;-83
2021/09/21 07:24:02;;;;;;;12.52;9.00;;;11.50;99.90;;;;;;5020607;28;20436;-82
2021/09/21 07:26:28;;;;;;;13.95;8.52;;;11.60;99.90;;;;;;5013923;28;20065;-83
2021/09/21 07:28:53;;;;;;;13.90;8.05;;;11.70;99.90;;;;;;5011849;28;20029;-83
2021/09/21 07:31:19;;;;;;;10.18;7.43;;;11.80;99.90;;;;;;5011283;28;20048;-83
2021/09/21 07:33:47;;;;;;;12.55;7.88;;;11.80;99.90;;;;;;5010056;28;20033;-83
2021/09/21 07:36:13;;;;;;;12.18;8.05;;;11.90;99.90;;;;;;5013360;28;20092;-82
2021/09/21 07:38:38;;;;;;;16.73;8.48;;;12.00;99.90;;;;;;5010828;28;20036;-82
2021/09/21 07:41:04;;;;;;;10.32;7.65;;;12.00;99.90;;;;;;5024834;28;20038;-82
2021/09/21 07:43:30;;;;;;;15.63;8.77;;;12.10;99.90;;;;;;5010758;28;20053;-84
2021/09/21 07:45:55;;;;;;;11.50;7.72;;;12.10;99.90;;;;;;5012149;28;20041;-82
2021/09/21 07:48:21;;;;;;;13.55;7.68;;;12.20;99.90;;;;;;5010591;28;20025;-81
2021/09/21 07:50:48;;;;;;;10.73;7.47;;;12.20;99.90;;;;;;5010464;28;20367;-82
2021/09/21 07:53:17;;;;;;;14.52;7.57;;;12.30;99.90;;;;;;5013252;28;20037;-84
2021/09/21 07:55:44;;;;;;;10.65;7.63;;;12.30;99.90;;;;;;5013531;28;20053;-83
2021/09/21 07:58:11;;;;;;;11.70;7.40;;;12.40;99.90;;;;;;5012942;28;20025;-84
2021/09/21 08:00:38;;;;;;;14.95;7.97;;;12.50;99.90;;;;;;5011154;28;20046;-82
2021/09/21 08:03:04;;;;;;;16.98;8.52;;;12.70;99.90;;;;;;5010786;28;20026;-82
2021/09/21 08:05:30;;;;;;;15.73;8.32;;;12.80;99.90;;;;;;5010199;28;20052;-83
2021/09/21 08:07:55;;;;;;;13.02;7.93;;;12.90;99.70;;;;;;5009793;28;20446;-82
2021/09/21 08:10:21;;;;;;;12.25;8.57;;;13.10;99.50;;;;;;5007187;28;20478;-82
2021/09/21 08:12:47;;;;;;;12.90;7.90;;;13.20;99.40;;;;;;5011821;28;20513;-83
2021/09/21 08:15:14;;;;;;;10.07;7.00;;;13.30;99.20;;;;;;5011736;28;20034;-83
2021/09/21 08:17:39;;;;;;;11.82;7.53;;;13.40;99.00;;;;;;5010473;28;20024;-82
2021/09/21 08:20:07;;;;;;;12.05;7.45;;;13.50;98.80;;;;;;5012108;28;20042;-83
2021/09/21 08:22:33;;;;;;;11.68;7.57;;;13.70;98.70;;;;;;5013218;28;20030;-83
2021/09/21 08:25:00;;;;;;;10.73;7.25;;;13.80;98.60;;;;;;5018693;28;20026;-83
2021/09/21 08:27:26;;;;;;;11.07;7.05;;;14.00;98.50;;;;;;5017497;28;20064;-82
2021/09/21 08:29:52;;;;;;;9.50;6.45;;;14.00;98.30;;;;;;5013091;28;20439;-83
2021/09/21 08:32:18;;;;;;;12.27;6.65;;;14.10;97.90;;;;;;5017947;28;20117;-83
2021/09/21 08:34:43;;;;;;;10.80;5.90;;;14.20;97.70;;;;;;5018210;28;20030;-83
2021/09/21 08:37:09;;;;;;;11.75;6.35;;;14.40;97.60;;;;;;5013350;28;20030;-83
2021/09/21 08:39:34;;;;;;;8.45;5.72;;;14.50;97.30;;;;;;5001590;28;20057;-83
2021/09/21 08:42:00;;;;;;;9.10;6.07;;;14.70;97.10;;;;;;5014731;28;20457;-82
2021/09/21 08:44:26;;;;;;;7.85;5.28;;;14.80;96.80;;;;;;5017457;28;20040;-81
2021/09/21 08:46:52;;;;;;;11.88;7.93;;;14.90;96.80;;;;;;5017402;28;20021;-83
2021/09/21 08:49:18;;;;;;;18.40;10.02;;;15.10;96.50;;;;;;5016551;28;20026;-82
2021/09/21 08:51:43;;;;;;;14.02;7.90;;;15.30;96.20;;;;;;5016148;28;20029;-83
2021/09/21 08:54:10;;;;;;;10.45;6.82;;;15.50;95.70;;;;;;5018667;28;20038;-82
2021/09/21 08:56:37;;;;;;;8.70;5.88;;;15.70;95.30;;;;;;5016939;28;20493;-82
2021/09/21 08:59:07;;;;;;;7.82;5.78;;;15.80;95.00;;;;;;5015850;28;20040;-81
2021/09/21 09:02:06;;;;;;;9.93;5.78;;;15.90;94.80;;;;;;5004963;28;20502;-83
2021/09/21 09:04:31;;;;;;;8.40;6.30;;;16.10;94.50;;;;;;5001564;28;20504;-82
2021/09/21 09:06:58;;;;;;;6.75;5.50;;;16.20;94.50;;;;;;5015487;28;20033;-81
2021/09/21 09:09:27;;;;;;;8.95;5.88;;;16.30;94.30;;;;;;5015177;28;20022;-81
2021/09/21 09:11:55;;;;;;;7.80;5.03;;;16.50;93.90;;;;;;5014015;28;20026;-81
2021/09/21 09:14:33;;;;;;;8.52;5.28;;;16.60;93.60;;;;;;5016557;28;20100;-82
2021/09/21 09:17:05;;;;;;;7.25;4.40;;;16.70;93.30;;;;;;5015966;28;20054;-81
2021/09/21 09:19:35;;;;;;;2.17;1.52;;;16.80;93.00;;;;;;5014817;28;20044;-82
2021/09/21 09:22:26;;;;;;;3.20;1.80;;;16.80;91.70;;;;;;5015486;28;20456;-82
2021/09/21 09:25:00;;;;;;;5.43;2.05;;;16.90;91.00;;;;;;5005510;28;20069;-82
2021/09/21 09:27:44;;;;;;;2.63;1.90;;;16.90;90.70;;;;;;5014846;28;20041;-82
2021/09/21 09:30:12;;;;;;;3.35;1.98;;;16.90;90.20;;;;;;5015262;28;20038;-82
2021/09/21 09:32:59;;;;;;;2.90;1.63;;;16.90;89.40;;;;;;5009068;28;20096;-82
2021/09/21 09:35:28;;;;;;;6.90;1.90;;;17.00;87.80;;;;;;5015159;28;20394;-82
2021/09/21 09:37:55;;;;;;;2.47;0.93;;;17.00;86.70;;;;;;5012047;28;20053;-81
2021/09/21 09:40:21;;;;;;;2.70;0.80;;;17.10;84.50;;;;;;5013985;28;20164;-82
2021/09/21 09:42:49;;;;;;;1.98;0.90;;;17.20;83.00;;;;;;5003432;28;20561;-82
2021/09/21 09:45:26;;;;;;;3.05;1.20;;;17.20;81.90;;;;;;5014786;28;20674;-83
2021/09/21 09:47:53;;;;;;;4.05;1.50;;;17.30;81.20;;;;;;5014623;28;20398;-82
2021/09/21 09:50:23;;;;;;;3.65;1.83;;;17.40;80.10;;;;;;5016634;28;20063;-82
2021/09/21 09:52:48;;;;;;;3.67;2.63;;;17.50;79.40;;;;;;5013307;28;20022;-82
2021/09/21 09:55:14;;;;;;;4.45;2.00;;;17.50;79.00;;;;;;5008948;28;20165;-82
2021/09/21 09:57:41;;;;;;;5.60;2.10;;;17.50;78.60;;;;;;5026238;28;20033;-82
2021/09/21 10:00:09;;;;;;;4.65;2.15;;;17.50;77.20;;;;;;5006803;28;20038;-81
2021/09/21 10:02:36;;;;;;;4.03;1.92;;;17.50;77.50;;;;;;5003569;28;20025;-82
2021/09/21 10:05:02;;;;;;;5.28;1.85;;;17.60;77.70;;;;;;5012511;28;20083;-82
2021/09/21 10:07:28;;;;;;;3.17;1.95;;;17.60;77.80;;;;;;5014492;28;20386;-82
2021/09/21 10:09:56;;;;;;;3.58;1.42;;;17.80;76.90;;;;;;5008828;28;20022;-82
2021/09/21 10:12:21;;;;;;;2.85;1.23;;;17.80;75.70;;;;;;5029504;28;20072;-82
2021/09/21 10:14:47;;;;;;;4.30;1.70;;;17.90;75.40;;;;;;5011507;28;20029;-82
2021/09/21 10:17:23;;;;;;;4.25;1.83;;;18.00;74.90;;;;;;5000206;28;20442;-82
2021/09/21 10:19:54;;;;;;;3.78;1.40;;;18.00;73.40;;;;;;5008290;28;20076;-82
2021/09/21 10:22:31;;;;;;;2.40;0.90;;;18.00;72.30;;;;;;5008044;28;20045;-81
2021/09/21 10:25:06;;;;;;;3.50;1.30;;;18.10;72.40;;;;;;5013362;28;20128;-83
2021/09/21 10:27:35;;;;;;;2.45;1.20;;;18.20;71.40;;;;;;5012545;28;20022;-82
2021/09/21 10:30:04;;;;;;;2.38;1.15;;;18.10;70.80;;;;;;5012143;28;20018;-82
2021/09/21 10:32:30;;;;;;;2.20;1.10;;;18.10;69.60;;;;;;5001892;28;20575;-82
2021/09/21 10:34:58;;;;;;;3.13;1.65;;;18.10;68.90;;;;;;5002835;28;20062;-82
2021/09/21 10:37:31;;;;;;;2.90;1.25;;;18.00;68.40;;;;;;5011864;28;20095;-82
2021/09/21 10:40:01;;;;;;;2.88;1.08;;;18.00;68.50;;;;;;5014859;28;20548;-82
2021/09/21 10:42:28;;;;;;;4.72;1.58;;;18.00;68.70;;;;;;5012169;28;20636;-82
2021/09/21 10:44:57;;;;;;;5.70;2.53;;;17.90;68.50;;;;;;5008633;28;20072;-82
2021/09/21 10:47:25;;;;;;;3.38;1.58;;;18.00;68.10;;;;;;5012505;28;20061;-82
2021/09/21 10:49:51;;;;;;;2.28;1.42;;;17.80;67.90;;;;;;4998591;28;20117;-82
2021/09/21 10:52:19;;;;;;;4.60;1.10;;;17.80;68.00;;;;;;5013762;28;20454;-82
2021/09/21 10:54:54;;;;;;;6.95;2.70;;;17.80;68.20;;;;;;5005531;28;20023;-82
2021/09/21 10:57:27;;;;;;;4.90;1.48;;;18.00;68.20;;;;;;5013509;28;20029;-82
2021/09/21 10:59:55;;;;;;;2.88;1.00;;;18.10;67.10;;;;;;5013461;28;20025;-82
2021/09/21 11:02:42;;;;;;;2.42;1.20;;;18.20;66.30;;;;;;5014005;28;20057;-83
2021/09/21 11:05:10;;;;;;;4.78;1.48;;;18.40;65.30;;;;;;5013633;28;20203;-83
2021/09/21 11:07:37;;;;;;;3.30;1.30;;;18.40;64.70;;;;;;5013245;28;20037;-83
2021/09/21 11:10:04;;;;;;;3.80;1.50;;;18.50;64.80;;;;;;5014591;28;20029;-83
2021/09/21 11:12:30;;;;;;;3.08;1.40;;;18.50;64.40;;;;;;5012703;28;20124;-83
2021/09/21 11:14:58;;;;;;;3.58;1.20;;;18.50;64.10;;;;;;5014617;28;20073;-83
2021/09/21 11:17:27;;;;;;;2.58;1.30;;;18.50;63.40;;;;;;5010937;28;20018;-83
2021/09/21 11:19:55;;;;;;;2.55;1.17;;;18.60;63.10;;;;;;4994399;28;20042;-83
2021/09/21 11:22:27;;;;;;;2.22;0.90;;;18.60;63.50;;;;;;4994880;28;20030;-83
2021/09/21 11:25:04;;;;;;;2.40;0.90;;;18.80;62.80;;;;;;5009396;28;20027;-83
2021/09/21 11:27:30;;;;;;;6.13;1.15;;;18.80;62.50;;;;;;4998103;28;20032;-83
2021/09/21 11:30:01;;;;;;;2.13;0.90;;;18.90;61.80;;;;;;5014106;28;20093;-83
2021/09/21 11:32:27;;;;;;;3.58;1.15;;;18.90;61.30;;;;;;5013093;28;20108;-82
2021/09/21 11:35:10;;;;;;;2.15;1.30;;;19.00;61.60;;;;;;5012580;28;20445;-83
2021/09/21 11:37:37;;;;;;;4.15;1.73;;;19.20;61.70;;;;;;5007803;28;20028;-82
2021/09/21 11:40:04;;;;;;;3.03;1.25;;;19.20;61.50;;;;;;5009637;28;20030;-83
2021/09/21 11:42:32;;;;;;;3.38;1.67;;;19.10;61.50;;;;;;4995063;28;20022;-83
2021/09/21 11:45:06;;;;;;;3.67;1.02;;;19.10;60.80;;;;;;5011573;28;20032;-83
2021/09/21 11:47:50;;;;;;;2.00;1.13;;;19.20;60.30;;;;;;5014276;28;20018;-83
2021/09/21 11:50:25;;;;;;;2.55;1.10;;;19.30;59.90;;;;;;5014411;28;20125;-83
2021/09/21 11:52:54;;;;;;;2.55;0.85;;;19.40;60.00;;;;;;5014199;28;20034;-83
2021/09/21 11:55:22;;;;;;;6.13;1.80;;;19.50;59.80;;;;;;5014539;28;20474;-83
2021/09/21 11:57:49;;;;;;;4.53;2.17;;;19.70;59.80;;;;;;5012039;28;20053;-83
2021/09/21 12:00:27;;;;;;;2.75;1.48;;;19.80;59.60;;;;;;5029446;28;20469;-83
2021/09/21 12:03:04;;;;;;;4.53;2.30;;;19.80;59.80;;;;;;5014300;28;20136;-83
2021/09/21 12:05:31;;;;;;;2.30;1.33;;;19.90;59.60;;;;;;5012527;28;20486;-83
2021/09/21 12:08:04;;;;;;;3.00;1.50;;;19.90;59.40;;;;;;5010118;28;20030;-84
2021/09/21 12:10:30;;;;;;;3.03;1.52;;;20.00;59.30;;;;;;4994911;28;20149;-83
2021/09/21 12:13:18;;;;;;;3.97;1.52;;;20.00;58.60;;;;;;5009695;28;20125;-83
2021/09/21 12:15:48;;;;;;;2.45;1.27;;;20.00;58.30;;;;;;4993329;28;20031;-83
2021/09/21 12:18:15;;;;;;;4.78;1.67;;;20.10;58.50;;;;;;5000223;28;20022;-83
2021/09/21 12:20:42;;;;;;;2.90;1.38;;;20.20;58.30;;;;;;5029467;28;20129;-83
2021/09/21 12:23:10;;;;;;;2.40;1.17;;;20.20;58.80;;;;;;5013992;28;20029;-83
2021/09/21 12:25:39;;;;;;;1.80;1.00;;;20.40;58.80;;;;;;5029226;28;20156;-83
2021/09/21 12:28:07;;;;;;;2.13;1.13;;;20.50;57.90;;;;;;5017583;28;20041;-83
2021/09/21 12:30:37;;;;;;;2.42;1.42;;;20.50;58.10;;;;;;5012348;28;20385;-85
2021/09/21 12:33:10;;;;;;;3.58;2.13;;;20.60;58.60;;;;;;5011424;28;20057;-85
2021/09/21 12:35:44;;;;;;;3.17;1.90;;;20.70;58.40;;;;;;5020186;28;20037;-85
2021/09/21 12:38:15;;;;;;;3.25;1.55;;;20.70;57.10;;;;;;5021395;28;20164;-85
2021/09/21 12:41:04;;;;;;;3.30;1.80;;;20.60;56.80;;;;;;5029605;28;20041;-85
2021/09/21 12:43:42;;;;;;;2.00;0.90;;;20.60;57.10;;;;;;5011099;28;20026;-87
2021/09/21 12:46:10;;;;;;;3.75;1.30;;;20.50;57.60;;;;;;5011593;28;20437;-85
2021/09/21 12:48:41;;;;;;;2.33;0.98;;;20.50;58.10;;;;;;5012469;28;20022;-85
2021/09/21 12:51:09;;;;;;;2.72;1.10;;;20.60;58.70;;;;;;5012074;28;20022;-83
2021/09/21 12:53:35;;;;;;;2.65;1.30;;;20.80;58.60;;;;;;5012341;28;20093;-83
2021/09/21 12:56:04;;;;;;;3.20;1.80;;;20.80;58.30;;;;;;5011812;28;20036;-85
2021/09/21 12:58:38;;;;;;;2.58;1.35;;;20.80;57.50;;;;;;5011439;28;20052;-86
2021/09/21 13:01:06;;;;;;;4.97;1.50;;;20.90;57.40;;;;;;5011442;28;20145;-86
2021/09/21 13:03:33;;;;;;;2.63;1.40;;;20.90;57.60;;;;;;5012762;28;20057;-87